Time;durP1;ratioP1;P1;durP2;ratioP2;P2;SDS_P1;SDS_P2;PMS_P1;PMS_P2;Temp;Humidity;BMP_temperature;BMP_pressure;BME280_temperature;BME280_humidity;BME280_pressure;Samples;Min_cycle;Max_cycle;Signal;HPM_P1;HPM_P2
2023/03/27 07:33:21;;;;;;;;;;;;;;;;;;;;;
2023/03/27 07:34:32;;;;;;;;;;;;;;;4.86;52.68;99958.28;1086969;54;19946;-82
2023/03/27 07:37:21;;;;;;;;;;;;;;;4.89;52.45;99958.06;1088215;46;19939;-84
2023/03/27 07:38:25;;;;;;;;;;;;;;;4.86;53.00;99960.06;1088824;46;20030;-79
2023/03/27 07:39:39;;;;;;;;;;;;;;;4.81;53.41;99971.88;1087245;54;19962;-81
2023/03/27 07:40:45;;;;;;;;;;;;;;;4.79;52.73;99967.63;1090093;46;19942;-80
2023/03/27 07:42:05;;;;;;;;;;;;;;;4.82;53.21;99970.06;1087269;54;19943;-81
2023/03/27 07:43:13;;;;;;;;;;;;;;;4.94;53.38;99977.13;1087061;54;19943;-79
2023/03/27 07:44:18;;;;;;;;;;;;;;;5.02;53.10;99978.38;1087532;46;19939;-80
2023/03/27 07:45:23;;;;;;;;;;;;;;;5.04;52.93;99982.59;1086881;46;19943;-80
2023/03/27 07:46:29;;;;;;;;;;;;;;;5.04;52.94;99985.25;1086626;54;19946;-81
2023/03/27 07:47:35;;;;;;;;;;;;;;;5.07;52.98;99986.81;1086186;54;19943;-79
2023/03/27 07:48:41;;;;;;;;;;;;;;;5.09;53.06;99985.78;1087270;46;19945;-79
2023/03/27 07:49:42;;;;;;;;;;;;;;;5.12;52.70;99984.69;1086814;54;19942;-79
2023/03/27 07:50:52;;;;;;;;;;;;;;;5.13;51.99;99981.94;1087198;54;19942;-80
2023/03/27 07:52:24;;;;;;;;;;;;;;;5.24;52.28;99983.78;1088994;46;19943;-81
2023/03/27 07:53:31;;;;;;;;;;;;;;;5.25;51.09;99982.00;1090307;39;20775;-81
2023/03/27 07:54:35;;;;;;;;;;;;;;;5.17;51.37;99990.50;1087387;54;20022;-80
2023/03/27 07:55:49;;;;;;;;;;;;;;;5.21;51.50;99994.63;1087245;54;19981;-80
2023/03/27 07:57:02;;;;;;;;;;;;;;;5.23;50.91;99983.91;1087295;54;20705;-79
2023/03/27 07:58:05;;;;;;;;;;;;;;;5.35;51.30;99996.28;1087480;46;20580;-80
2023/03/27 08:11:51;;;;;;;;;;;;;;;5.81;48.91;100021.19;1087078;46;19971;-81
2023/03/27 08:14:39;;;;;;;;;;;;;;;6.30;47.75;100021.97;1086610;54;19938;-80
2023/03/27 08:15:40;;;;;;;;;;;;;;;6.34;47.11;100031.38;1086714;47;20335;-81
2023/03/27 08:16:44;;;;;;;;;;;;;;;6.54;47.73;100023.69;1086729;54;19942;-80
2023/03/27 08:17:46;;;;;;;;;;;;;;;6.59;46.87;100024.19;1090464;46;19943;-79
2023/03/27 08:19:24;;;;;;;;;;;;;;;6.75;46.64;100022.97;1086673;54;19974;-79
2023/03/27 08:20:29;;;;;;;;;;;;;;;6.46;47.03;100032.28;1086603;54;20675;-80
2023/03/27 08:21:34;;;;;;;;;;;;;;;6.61;47.61;100027.56;1086588;54;19943;-80
2023/03/27 08:22:38;;;;;;;;;;;;;;;6.67;46.46;100029.75;1086731;54;19947;-80
2023/03/27 08:23:42;;;;;;;;;;;;;;;7.01;46.75;100029.72;1086431;54;19954;-80
2023/03/27 08:24:45;;;;;;;;;;;;;;;7.13;45.99;100037.69;1086589;54;19958;-80
2023/03/27 08:25:53;;;;;;;;;;;;;;;7.21;45.63;100024.63;1086405;54;19955;-80
2023/03/27 08:26:57;;;;;;;;;;;;;;;7.30;45.68;100034.53;1086338;54;20030;-79
2023/03/27 08:27:58;;;;;;;;;;;;;;;7.34;45.65;100033.31;1086637;54;19946;-81
2023/03/27 08:29:02;;;;;;;;;;;;;;;7.42;45.71;100037.16;1087686;46;19951;-81
2023/03/27 08:30:05;;;;;;;;;;;;;;;7.53;44.22;100038.94;1087335;54;19942;-81
2023/03/27 08:31:12;;;;;;;;;;;;;;;7.57;44.45;100038.56;1087570;54;19939;-80
2023/03/27 08:32:13;;;;;;;;;;;;;;;7.70;44.48;100041.06;1087523;54;19957;-81
2023/03/27 08:33:18;;;;;;;;;;;;;;;7.70;44.32;100041.06;1087150;54;19943;-80
2023/03/27 08:34:19;;;;;;;;;;;;;;;7.77;44.12;100041.41;1088107;39;20648;-78
2023/03/27 08:35:23;;;;;;;;;;;;;;;7.87;44.43;100037.00;1086792;54;19945;-79
2023/03/27 08:36:24;;;;;;;;;;;;;;;8.03;44.14;100036.56;1087338;54;19942;-81
2023/03/27 08:37:28;;;;;;;;;;;;;;;8.16;44.19;100036.38;1087323;54;19988;-79
2023/03/27 08:38:32;;;;;;;;;;;;;;;8.23;43.98;100026.91;1087367;54;19947;-80
2023/03/27 08:39:33;;;;;;;;;;;;;;;8.20;43.54;100035.16;1088115;46;19978;-80
2023/03/27 08:40:37;;;;;;;;;;;;;;;8.28;43.72;100039.81;1088215;46;19955;-79
2023/03/27 08:41:47;;;;;;;;;;;;;;;8.37;42.89;100038.22;1087823;46;20007;-81
2023/03/27 08:42:54;;;;;;;;;;;;;;;8.41;42.33;100042.28;1088190;46;19955;-81
2023/03/27 08:43:58;;;;;;;;;;;;;;;8.46;42.37;100047.22;1086772;54;19950;-80
2023/03/27 08:45:05;;;;;;;;;;;;;;;8.40;42.78;100049.44;1087449;54;19950;-80
2023/03/27 08:46:11;;;;;;;;;;;;;;;8.34;42.38;100049.97;1087498;54;19943;-80
2023/03/27 08:47:18;;;;;;;;;;;;;;;8.26;41.52;100050.63;1087492;47;19943;-80
2023/03/27 08:48:27;;;;;;;;;;;;;;;8.28;42.01;100055.81;1088041;46;19946;-79
2023/03/27 08:51:04;;;;;;;;;;;;;;;8.37;43.03;100062.19;1087981;46;19939;-79
2023/03/27 08:52:26;;;;;;;;;;;;;;;8.52;42.78;100057.41;1087158;54;19943;-77
2023/03/27 08:53:57;;;;;;;;;;;;;;;8.80;42.11;100055.84;1087858;46;19966;-81
2023/03/27 08:55:00;;;;;;;;;;;;;;;9.04;41.35;100068.03;1086674;47;19943;-80
2023/03/27 08:56:05;;;;;;;;;;;;;;;9.01;40.52;100065.63;1086946;54;19998;-80
2023/03/27 08:57:21;;;;;;;;;;;;;;;8.88;40.80;100060.53;1086690;54;19966;-81
2023/03/27 08:58:28;;;;;;;;;;;;;;;9.04;41.07;100058.22;1086756;39;20468;-79
2023/03/27 08:59:36;;;;;;;;;;;;;;;8.96;41.10;100058.03;1085939;54;20010;-79
2023/03/27 09:00:45;;;;;;;;;;;;;;;8.96;41.25;100063.38;1086215;54;19947;-79
2023/03/27 09:03:35;;;;;;;;;;;;;;;9.30;40.38;100063.09;1086752;54;19942;-81
2023/03/27 09:04:49;;;;;;;;;;;;;;;9.13;40.71;100069.91;1086674;54;19974;-79
2023/03/27 09:05:56;;;;;;;;;;;;;;;9.00;40.96;100078.13;1087445;39;20018;-80
2023/03/27 09:07:05;;;;;;;;;;;;;;;9.13;41.10;100071.72;1086631;54;19957;-80
2023/03/27 09:08:09;;;;;;;;;;;;;;;8.84;41.39;100072.44;1085796;54;20002;-79
2023/03/27 09:09:18;;;;;;;;;;;;;;;8.79;41.81;100064.00;1085771;54;19946;-78
2023/03/27 09:10:23;;;;;;;;;;;;;;;8.56;41.64;100081.00;1084999;54;19950;-77
2023/03/27 09:11:33;;;;;;;;;;;;;;;8.56;42.27;100081.00;1084911;54;19939;-79
2023/03/27 09:12:44;;;;;;;;;;;;;;;8.56;40.94;100081.00;1085509;54;20076;-79
2023/03/27 09:13:49;;;;;;;;;;;;;;;8.43;40.70;100081.16;1085790;54;19998;-80
2023/03/27 09:14:53;;;;;;;;;;;;;;;8.40;41.33;100093.91;1084790;54;19942;-78
2023/03/27 09:15:59;;;;;;;;;;;;;;;8.35;42.02;100094.28;1085426;54;19957;-77
2023/03/27 09:17:05;;;;;;;;;;;;;;;8.37;42.26;100092.31;1086078;54;19998;-80
2023/03/27 09:18:14;;;;;;;;;;;;;;;8.62;41.70;100092.94;1086948;54;21966;-80
2023/03/27 09:19:31;;;;;;;;;;;;;;;8.54;42.39;100096.25;1086458;54;19946;-79
2023/03/27 09:20:36;;;;;;;;;;;;;;;7.93;42.74;100092.41;1085889;54;19947;-78
2023/03/27 09:21:41;;;;;;;;;;;;;;;8.02;42.72;100100.63;1085313;54;19954;-79
2023/03/27 09:22:46;;;;;;;;;;;;;;;7.93;42.46;100094.22;1085551;54;19951;-78
2023/03/27 09:23:54;;;;;;;;;;;;;;;8.10;42.87;100098.16;1086501;39;20414;-79
2023/03/27 09:24:58;;;;;;;;;;;;;;;8.06;42.56;100102.91;1086422;54;19987;-79
2023/03/27 09:26:05;;;;;;;;;;;;;;;8.00;42.85;100102.56;1086339;54;19957;-79
2023/03/27 09:27:16;;;;;;;;;;;;;;;7.90;43.44;100110.44;1086274;54;20608;-78
2023/03/27 09:28:23;;;;;;;;;;;;;;;8.16;43.26;100102.13;1086191;54;19951;-78
2023/03/27 09:29:30;;;;;;;;;;;;;;;8.25;42.14;100104.84;1087060;54;19991;-80
2023/03/27 09:30:36;;;;;;;;;;;;;;;8.06;40.40;100110.03;1086212;54;20021;-78
2023/03/27 09:31:45;;;;;;;;;;;;;;;8.19;40.57;100108.03;1086431;54;19946;-79
2023/03/27 09:32:48;;;;;;;;;;;;;;;8.26;40.46;100114.53;1086498;54;19957;-78
2023/03/27 09:33:52;;;;;;;;;;;;;;;8.25;40.56;100112.84;1086263;54;19951;-81
2023/03/27 09:34:54;;;;;;;;;;;;;;;8.18;40.95;100109.00;1086345;54;19943;-80
2023/03/27 09:35:59;;;;;;;;;;;;;;;8.37;41.02;100118.13;1085484;54;20461;-80
2023/03/27 09:37:04;;;;;;;;;;;;;;;8.55;40.60;100105.94;1085738;54;19973;-80
2023/03/27 09:38:23;;;;;;;;;;;;;;;8.57;41.11;100103.16;1085664;54;19946;-79
2023/03/27 09:39:31;;;;;;;;;;;;;;;9.02;40.93;100102.00;1086624;54;19965;-80
2023/03/27 09:40:43;;;;;;;;;;;;;;;9.29;40.18;100097.88;1086599;54;19943;-78
2023/03/27 09:41:48;;;;;;;;;;;;;;;9.41;39.79;100102.16;1086493;54;19951;-79
2023/03/27 09:42:52;;;;;;;;;;;;;;;9.25;39.94;100105.31;1086380;54;19973;-81
2023/03/27 09:44:02;;;;;;;;;;;;;;;9.21;39.76;100104.75;1087023;47;19954;-80
2023/03/27 09:45:16;;;;;;;;;;;;;;;9.30;40.08;100102.25;1086499;54;20805;-79
2023/03/27 09:46:21;;;;;;;;;;;;;;;9.50;40.54;100106.66;1086817;54;19939;-81
2023/03/27 09:47:31;;;;;;;;;;;;;;;9.59;40.37;100099.66;1086708;47;19954;-81
2023/03/27 09:48:35;;;;;;;;;;;;;;;9.31;40.80;100109.28;1087882;47;19950;-79
2023/03/27 09:49:43;;;;;;;;;;;;;;;9.24;40.75;100106.28;1087622;54;19950;-81
2023/03/27 09:50:48;;;;;;;;;;;;;;;9.16;40.47;100104.28;1087061;54;19950;-80
2023/03/27 09:52:04;;;;;;;;;;;;;;;9.14;41.12;100100.06;1086566;54;19966;-80
2023/03/27 09:53:12;;;;;;;;;;;;;;;9.03;40.76;100101.84;1086326;54;19985;-80
2023/03/27 09:54:16;;;;;;;;;;;;;;;8.94;40.52;100112.47;1086201;54;19943;-80
2023/03/27 09:55:29;;;;;;;;;;;;;;;8.73;40.13;100118.69;1084130;54;19951;-78
2023/03/27 09:56:34;;;;;;;;;;;;;;;8.56;40.57;100110.31;1084791;54;19970;-79
2023/03/27 09:57:39;;;;;;;;;;;;;;;8.48;39.84;100112.78;1085769;54;20077;-79
2023/03/27 09:58:43;;;;;;;;;;;;;;;8.41;39.78;100107.09;1085896;54;20002;-78
2023/03/27 09:59:57;;;;;;;;;;;;;;;8.43;39.74;100117.59;1085779;54;20021;-79
2023/03/27 10:01:14;;;;;;;;;;;;;;;8.71;39.77;100116.16;1084711;54;19951;-79
2023/03/27 10:02:19;;;;;;;;;;;;;;;8.94;40.23;100107.97;1086202;54;19975;-79
2023/03/27 10:03:21;;;;;;;;;;;;;;;8.53;41.43;100123.03;1085492;54;19942;-81
2023/03/27 10:04:26;;;;;;;;;;;;;;;8.64;41.24;100119.47;1085144;39;20365;-79
2023/03/27 10:05:29;;;;;;;;;;;;;;;8.69;41.26;100118.09;1085252;54;19943;-78
2023/03/27 10:06:33;;;;;;;;;;;;;;;8.32;41.78;100120.31;1083928;54;19950;-79
2023/03/27 10:07:34;;;;;;;;;;;;;;;7.93;42.49;100129.69;1084489;54;19947;-79
2023/03/27 10:08:40;;;;;;;;;;;;;;;8.11;42.81;100124.66;1084462;54;19943;-81
2023/03/27 10:12:23;;;;;;;;;;;;;;;8.31;42.09;100122.16;1086287;54;19939;-80
2023/03/27 10:13:48;;;;;;;;;;;;;;;8.26;41.79;100122.53;1086489;54;20003;-80
2023/03/27 10:14:53;;;;;;;;;;;;;;;8.25;41.38;100122.66;1085674;54;19950;-78
2023/03/27 10:16:00;;;;;;;;;;;;;;;8.18;41.49;100117.00;1085518;54;20061;-80
2023/03/27 10:17:04;;;;;;;;;;;;;;;8.26;41.13;100127.03;1086241;54;19943;-80
2023/03/27 10:18:07;;;;;;;;;;;;;;;8.42;40.83;100124.75;1086167;54;19943;-78
2023/03/27 10:19:21;;;;;;;;;;;;;;;8.50;39.81;100116.13;1085456;54;19946;-80
2023/03/27 10:20:30;;;;;;;;;;;;;;;8.70;40.17;100124.25;1085929;54;19975;-80
2023/03/27 10:21:35;;;;;;;;;;;;;;;8.68;39.50;100126.22;1085612;39;20324;-80
2023/03/27 10:22:37;;;;;;;;;;;;;;;8.66;38.62;100133.50;1084606;54;19988;-79
2023/03/27 10:23:45;;;;;;;;;;;;;;;8.57;38.55;100129.78;1083647;54;19950;-78
2023/03/27 10:24:50;;;;;;;;;;;;;;;8.80;39.27;100130.50;1083881;54;19966;-78
2023/03/27 10:25:52;;;;;;;;;;;;;;;8.77;38.51;100130.78;1083246;54;19951;-79
2023/03/27 10:26:57;;;;;;;;;;;;;;;8.67;38.94;100136.03;1084045;39;20456;-79
2023/03/27 10:28:10;;;;;;;;;;;;;;;8.68;39.65;100137.72;1084503;54;19978;-79
2023/03/27 10:29:24;;;;;;;;;;;;;;;8.67;39.62;100140.53;1083553;54;19950;-79
2023/03/27 10:30:27;;;;;;;;;;;;;;;8.83;39.57;100135.56;1084183;54;19946;-79
2023/03/27 10:31:36;;;;;;;;;;;;;;;8.60;39.90;100132.19;1084441;54;19957;-78
2023/03/27 10:32:47;;;;;;;;;;;;;;;8.34;40.84;100139.69;1084834;54;19958;-78
2023/03/27 10:33:52;;;;;;;;;;;;;;;8.41;41.26;100143.53;1084655;54;19975;-79
2023/03/27 10:35:20;;;;;;;;;;;;;;;8.37;41.08;100147.44;1085014;54;19958;-79
2023/03/27 10:36:45;;;;;;;;;;;;;;;8.22;41.50;100147.72;1085540;54;19965;-78
2023/03/27 10:38:02;;;;;;;;;;;;;;;8.05;40.92;100156.25;1084302;54;19958;-78
2023/03/27 10:39:09;;;;;;;;;;;;;;;8.27;41.31;100153.53;1085840;54;20007;-78
2023/03/27 10:40:21;;;;;;;;;;;;;;;8.46;40.99;100149.31;1085027;46;19942;-80
2023/03/27 10:41:52;;;;;;;;;;;;;;;8.57;39.97;100151.97;1084861;39;20366;-78
2023/03/27 10:42:54;;;;;;;;;;;;;;;8.95;39.33;100138.16;1086902;54;19938;-78
2023/03/27 10:43:59;;;;;;;;;;;;;;;8.98;38.16;100138.75;1087258;46;19951;-78
2023/03/27 10:45:03;;;;;;;;;;;;;;;9.04;37.49;100143.53;1084892;54;20399;-80
2023/03/27 10:46:08;;;;;;;;;;;;;;;9.24;37.44;100137.47;1085295;54;20640;-79
2023/03/27 10:47:20;;;;;;;;;;;;;;;9.31;37.61;100144.78;1085610;46;19947;-78
2023/03/27 10:48:29;;;;;;;;;;;;;;;9.31;37.22;100139.44;1087254;39;20569;-78
2023/03/27 10:49:38;;;;;;;;;;;;;;;9.35;37.10;100140.03;1084977;54;19946;-79
2023/03/27 10:50:51;;;;;;;;;;;;;;;9.35;37.39;100140.88;1085295;46;19946;-79
2023/03/27 10:52:00;;;;;;;;;;;;;;;9.03;37.57;100141.00;1087067;54;20034;-81
2023/03/27 10:53:15;;;;;;;;;;;;;;;8.98;38.08;100144.06;1086495;54;20798;-79
2023/03/27 10:54:28;;;;;;;;;;;;;;;9.01;38.88;100140.28;1087080;39;20221;-78
2023/03/27 10:55:43;;;;;;;;;;;;;;;8.86;39.66;100145.97;1085909;54;19954;-79
2023/03/27 10:56:48;;;;;;;;;;;;;;;8.99;39.95;100152.91;1085750;54;19950;-77
2023/03/27 10:57:54;;;;;;;;;;;;;;;9.01;39.88;100149.16;1086639;54;20006;-81
2023/03/27 10:59:08;;;;;;;;;;;;;;;9.00;39.65;100151.94;1086791;54;19955;-78
2023/03/27 11:00:12;;;;;;;;;;;;;;;8.62;38.37;100158.72;1087519;54;19966;-80
2023/03/27 11:01:30;;;;;;;;;;;;;;;8.78;39.04;100153.78;1087386;46;19950;-79
2023/03/27 11:02:37;;;;;;;;;;;;;;;8.73;38.86;100156.00;1086965;54;19942;-79
2023/03/27 11:03:45;;;;;;;;;;;;;;;8.62;38.87;100153.38;1087255;54;19950;-78
2023/03/27 11:04:50;;;;;;;;;;;;;;;8.84;38.86;100155.94;1087174;54;19962;-78
2023/03/27 11:05:54;;;;;;;;;;;;;;;8.74;38.72;100144.34;1088157;46;19966;-78
2023/03/27 11:06:59;;;;;;;;;;;;;;;8.84;39.08;100147.06;1087494;54;19943;-78
2023/03/27 11:08:05;;;;;;;;;;;;;;;8.96;38.84;100146.03;1087524;54;19990;-78
2023/03/27 11:09:14;;;;;;;;;;;;;;;9.10;38.69;100149.34;1086868;54;19942;-79
2023/03/27 11:10:21;;;;;;;;;;;;;;;8.90;38.40;100139.41;1087173;54;19942;-78
2023/03/27 11:11:25;;;;;;;;;;;;;;;8.75;37.86;100143.38;1087281;46;19938;-78
2023/03/27 11:12:30;;;;;;;;;;;;;;;8.50;37.79;100140.13;1088064;46;19958;-79
2023/03/27 11:13:32;;;;;;;;;;;;;;;8.63;38.00;100139.94;1087124;39;20658;-79
2023/03/27 11:14:40;;;;;;;;;;;;;;;8.79;38.19;100128.81;1087146;54;19945;-79
2023/03/27 11:15:46;;;;;;;;;;;;;;;8.71;37.90;100140.13;1087081;54;19949;-79
2023/03/27 11:16:51;;;;;;;;;;;;;;;8.08;38.20;100146.19;1087152;54;19938;-78
2023/03/27 11:18:01;;;;;;;;;;;;;;;7.94;38.72;100152.66;1087160;54;19939;-79
2023/03/27 11:19:09;;;;;;;;;;;;;;;7.69;39.21;100160.94;1087494;46;19939;-79
2023/03/27 11:20:20;;;;;;;;;;;;;;;7.62;39.57;100157.91;1087195;54;19946;-79
2023/03/27 11:21:27;;;;;;;;;;;;;;;7.81;39.75;100170.59;1087237;54;19943;-79
2023/03/27 11:22:31;;;;;;;;;;;;;;;7.80;39.89;100166.25;1087648;46;19942;-78
2023/03/27 11:23:37;;;;;;;;;;;;;;;8.08;39.54;100164.81;1087734;46;19947;-78
2023/03/27 11:24:43;;;;;;;;;;;;;;;8.15;38.82;100167.84;1087169;46;20010;-79
2023/03/27 11:25:48;;;;;;;;;;;;;;;8.27;39.05;100173.97;1087206;54;19994;-78
2023/03/27 11:26:54;;;;;;;;;;;;;;;8.38;38.79;100167.78;1087268;54;19949;-78
2023/03/27 11:28:02;;;;;;;;;;;;;;;8.49;38.80;100159.75;1087042;54;19946;-78
2023/03/27 11:29:08;;;;;;;;;;;;;;;8.45;38.82;100170.78;1088420;39;20133;-78
2023/03/27 11:30:19;;;;;;;;;;;;;;;7.99;39.89;100178.91;1087151;54;19943;-79
2023/03/27 11:31:30;;;;;;;;;;;;;;;7.70;41.82;100183.91;1087129;54;19943;-79
2023/03/27 11:32:38;;;;;;;;;;;;;;;7.65;42.51;100185.13;1090509;39;20606;-78
2023/03/27 11:33:47;;;;;;;;;;;;;;;7.56;43.18;100183.19;1087034;54;19948;-79
2023/03/27 11:34:52;;;;;;;;;;;;;;;7.55;43.02;100186.84;1087713;46;19952;-79
2023/03/27 11:36:01;;;;;;;;;;;;;;;7.43;43.30;100196.63;1087095;54;19942;-78
2023/03/27 11:37:07;;;;;;;;;;;;;;;7.45;43.84;100191.19;1086821;54;19943;-78
2023/03/27 11:38:14;;;;;;;;;;;;;;;7.30;43.63;100183.44;1087116;54;19962;-78
2023/03/27 11:39:22;;;;;;;;;;;;;;;7.52;43.26;100192.41;1087124;54;19942;-78
2023/03/27 11:40:27;;;;;;;;;;;;;;;7.54;43.39;100190.47;1087124;54;19950;-78
2023/03/27 11:41:31;;;;;;;;;;;;;;;7.49;43.49;100193.50;1087100;54;19943;-78
2023/03/27 11:42:38;;;;;;;;;;;;;;;7.54;42.88;100185.16;1087067;54;19951;-78
2023/03/27 11:43:42;;;;;;;;;;;;;;;7.69;42.49;100187.53;1087117;54;19966;-78
2023/03/27 11:44:43;;;;;;;;;;;;;;;7.35;42.51;100196.38;1087092;54;19942;-78
2023/03/27 11:45:52;;;;;;;;;;;;;;;7.30;42.83;100194.09;1087133;54;19942;-78
2023/03/27 11:47:12;;;;;;;;;;;;;;;7.33;43.23;100206.28;1087108;54;19942;-79
2023/03/27 11:48:28;;;;;;;;;;;;;;;7.54;43.46;100211.75;1087148;54;19965;-79
2023/03/27 11:49:41;;;;;;;;;;;;;;;7.67;43.41;100200.13;1087009;54;19943;-78
2023/03/27 11:50:50;;;;;;;;;;;;;;;7.44;42.91;100205.47;1087165;54;19947;-78
2023/03/27 11:52:00;;;;;;;;;;;;;;;7.39;43.38;100203.16;1087117;54;19985;-78
2023/03/27 11:53:17;;;;;;;;;;;;;;;7.43;43.68;100198.44;1087129;54;20026;-79
2023/03/27 11:54:29;;;;;;;;;;;;;;;7.57;43.62;100194.69;1086986;54;19950;-78
2023/03/27 11:55:36;;;;;;;;;;;;;;;7.76;43.36;100191.41;1087134;54;19943;-78
2023/03/27 11:56:43;;;;;;;;;;;;;;;7.86;43.26;100189.69;1087166;54;19950;-79
2023/03/27 11:57:56;;;;;;;;;;;;;;;7.95;43.19;100188.13;1087119;54;19950;-78
2023/03/27 11:59:03;;;;;;;;;;;;;;;8.03;42.81;100182.19;1087135;54;19950;-77
2023/03/27 12:00:24;;;;;;;;;;;;;;;8.06;42.67;100192.56;1087128;46;19946;-78
2023/03/27 12:01:27;;;;;;;;;;;;;;;8.00;42.95;100190.41;1087527;39;20247;-78
2023/03/27 12:02:44;;;;;;;;;;;;;;;7.78;43.41;100186.81;1087125;54;19949;-78
2023/03/27 12:04:07;;;;;;;;;;;;;;;7.78;43.73;100192.13;1087118;54;19943;-78
2023/03/27 12:05:20;;;;;;;;;;;;;;;7.77;43.39;100185.97;1087013;54;19946;-78
2023/03/27 12:06:28;;;;;;;;;;;;;;;7.72;43.54;100193.47;1087106;54;20006;-78
2023/03/27 12:07:39;;;;;;;;;;;;;;;7.66;43.58;100188.66;1087071;54;19942;-78
2023/03/27 12:08:51;;;;;;;;;;;;;;;7.79;43.09;100193.81;1087050;54;19942;-79
2023/03/27 12:10:03;;;;;;;;;;;;;;;7.75;42.92;100192.38;1087068;54;19942;-79
2023/03/27 12:11:05;;;;;;;;;;;;;;;7.75;43.04;100187.91;1087038;54;19943;-79
2023/03/27 12:12:23;;;;;;;;;;;;;;;7.91;42.83;100191.97;1087197;54;19950;-79
2023/03/27 12:13:47;;;;;;;;;;;;;;;8.08;42.19;100190.63;1087510;39;20232;-79
2023/03/27 12:14:56;;;;;;;;;;;;;;;8.34;41.81;100184.97;1087090;54;19938;-78
2023/03/27 12:16:10;;;;;;;;;;;;;;;8.35;41.45;100190.19;1087551;46;19946;-78
2023/03/27 12:17:21;;;;;;;;;;;;;;;8.45;41.84;100189.44;1087064;54;19943;-79
2023/03/27 12:18:28;;;;;;;;;;;;;;;8.68;41.58;100184.88;1087114;54;19946;-78
2023/03/27 12:19:40;;;;;;;;;;;;;;;8.82;41.15;100189.88;1087691;46;19977;-78
2023/03/27 12:20:54;;;;;;;;;;;;;;;8.71;39.85;100184.59;1087145;54;19942;-78
2023/03/27 12:22:06;;;;;;;;;;;;;;;8.37;40.11;100192.72;1087180;54;19943;-79
2023/03/27 12:23:15;;;;;;;;;;;;;;;8.62;40.28;100191.56;1087159;54;19931;-78
2023/03/27 12:24:41;;;;;;;;;;;;;;;8.37;41.40;100209.53;1087128;54;20039;-79
2023/03/27 12:25:59;;;;;;;;;;;;;;;8.23;41.66;100197.34;1087308;46;19938;-79
2023/03/27 12:27:22;;;;;;;;;;;;;;;8.11;41.63;100209.03;1087215;46;19945;-79
2023/03/27 12:28:34;;;;;;;;;;;;;;;7.89;41.29;100208.09;1088216;46;19942;-78
2023/03/27 12:29:44;;;;;;;;;;;;;;;7.86;41.19;100210.16;1087534;39;20266;-79
2023/03/27 12:30:54;;;;;;;;;;;;;;;8.01;41.27;100208.91;1087106;54;19950;-78
2023/03/27 12:32:04;;;;;;;;;;;;;;;7.83;41.61;100211.25;1087408;54;20022;-79
2023/03/27 12:33:32;;;;;;;;;;;;;;;7.81;41.28;100221.19;1087589;46;19942;-79
2023/03/27 12:34:39;;;;;;;;;;;;;;;8.09;40.95;100213.63;1087214;54;19962;-80
2023/03/27 12:37:05;;;;;;;;;;;;;;;8.26;40.82;100222.91;1086957;54;19943;-79
2023/03/27 12:38:11;;;;;;;;;;;;;;;8.02;41.57;100226.59;1087073;54;19949;-78
2023/03/27 12:39:19;;;;;;;;;;;;;;;7.92;42.15;100236.28;1087606;46;20003;-78
2023/03/27 12:40:26;;;;;;;;;;;;;;;7.95;45.60;100236.03;1087040;54;19951;-78
2023/03/27 12:41:32;;;;;;;;;;;;;;;7.68;50.42;100261.22;1087025;54;20015;-78
2023/03/27 12:42:41;;;;;;;;;;;;;;;7.25;53.54;100280.50;1087016;54;19942;-80
2023/03/27 12:43:46;;;;;;;;;;;;;;;6.75;57.32;100280.72;1086937;54;19939;-79
2023/03/27 12:45:02;;;;;;;;;;;;;;;6.36;59.39;100288.84;1087149;54;19943;-79
2023/03/27 12:46:11;;;;;;;;;;;;;;;6.30;61.58;100299.91;1087112;54;19949;-79
2023/03/27 12:47:18;;;;;;;;;;;;;;;6.03;62.85;100306.25;1088489;46;19970;-78
2023/03/27 12:48:19;;;;;;;;;;;;;;;5.89;64.45;100301.88;1087716;46;19961;-78
2023/03/27 12:49:40;;;;;;;;;;;;;;;5.84;65.06;100309.34;1086777;54;19942;-78
2023/03/27 12:50:46;;;;;;;;;;;;;;;5.93;64.06;100308.69;1092160;39;20198;-78
2023/03/27 12:52:06;;;;;;;;;;;;;;;6.00;63.40;100295.88;1087238;54;19944;-79
2023/03/27 12:53:20;;;;;;;;;;;;;;;5.75;66.68;100293.09;1087251;47;19954;-80
2023/03/27 12:54:26;;;;;;;;;;;;;;;5.68;65.05;100289.16;1087691;46;19942;-79
2023/03/27 12:55:29;;;;;;;;;;;;;;;5.76;65.42;100286.81;1087053;54;19973;-79
2023/03/27 12:56:35;;;;;;;;;;;;;;;5.83;64.03;100281.09;1086966;54;19950;-79
2023/03/27 12:57:45;;;;;;;;;;;;;;;5.95;63.75;100274.94;1087653;46;19943;-80
2023/03/27 12:58:54;;;;;;;;;;;;;;;5.99;63.42;100275.56;1087820;46;19935;-79
2023/03/27 12:59:58;;;;;;;;;;;;;;;6.07;62.93;100268.75;1086984;54;19942;-79
2023/03/27 13:01:00;;;;;;;;;;;;;;;6.03;63.55;100271.75;1087191;47;19994;-79
2023/03/27 13:02:28;;;;;;;;;;;;;;;6.03;62.95;100272.59;1086983;46;19943;-79
2023/03/27 13:03:51;;;;;;;;;;;;;;;6.03;64.17;100275.25;1086530;54;20007;-79
2023/03/27 13:05:18;;;;;;;;;;;;;;;6.11;64.42;100273.84;1088185;46;19943;-79
2023/03/27 13:06:27;;;;;;;;;;;;;;;6.12;64.93;100280.88;1086679;54;19943;-79
2023/03/27 13:07:35;;;;;;;;;;;;;;;6.23;63.86;100267.66;1086649;54;19986;-79
2023/03/27 13:08:50;;;;;;;;;;;;;;;6.24;65.47;100270.19;1087019;54;19942;-79
2023/03/27 13:10:03;;;;;;;;;;;;;;;6.35;64.35;100280.03;1086963;54;19943;-79
2023/03/27 13:11:15;;;;;;;;;;;;;;;6.42;62.90;100277.78;1087208;46;19975;-80
2023/03/27 13:12:31;;;;;;;;;;;;;;;6.47;63.34;100270.31;1086996;54;19966;-79
2023/03/27 13:13:43;;;;;;;;;;;;;;;6.43;62.85;100271.50;1086885;54;19942;-78
2023/03/27 13:14:56;;;;;;;;;;;;;;;6.48;62.73;100277.31;1087031;54;19942;-79
2023/03/27 13:16:05;;;;;;;;;;;;;;;6.27;63.95;100274.44;1086944;54;19974;-79
2023/03/27 13:17:17;;;;;;;;;;;;;;;6.29;63.27;100283.16;1086961;54;19954;-79
2023/03/27 13:18:33;;;;;;;;;;;;;;;6.44;62.48;100275.00;1086906;54;19950;-79
2023/03/27 13:19:39;;;;;;;;;;;;;;;6.49;62.15;100278.19;1087021;54;19943;-79
2023/03/27 13:20:47;;;;;;;;;;;;;;;6.55;62.17;100275.06;1087038;54;19946;-80
2023/03/27 13:21:53;;;;;;;;;;;;;;;6.74;61.57;100271.91;1087040;54;19942;-79
2023/03/27 13:23:04;;;;;;;;;;;;;;;6.62;61.99;100263.03;1087720;54;19992;-83
2023/03/27 13:25:52;;;;;;;;;;;;;;;6.59;61.05;100267.72;1087926;54;19934;-84
2023/03/27 13:27:08;;;;;;;;;;;;;;;6.75;60.87;100268.28;1087507;54;19942;-84
2023/03/27 13:28:31;;;;;;;;;;;;;;;6.81;61.14;100267.81;1090872;39;20717;-84
2023/03/27 13:29:52;;;;;;;;;;;;;;;6.79;60.53;100268.91;1087769;54;19941;-84
2023/03/27 13:30:58;;;;;;;;;;;;;;;7.02;60.16;100275.97;1087841;54;19995;-81
2023/03/27 13:32:06;;;;;;;;;;;;;;;6.85;60.00;100268.44;1088704;47;19943;-81
2023/03/27 13:34:42;;;;;;;;;;;;;;;7.01;60.32;100274.28;1087772;54;19935;-81
2023/03/27 13:35:54;;;;;;;;;;;;;;;6.93;59.96;100276.69;1087950;54;19942;-82
2023/03/27 13:37:04;;;;;;;;;;;;;;;6.90;59.84;100279.56;1087763;54;20002;-83
2023/03/27 13:38:10;;;;;;;;;;;;;;;6.74;60.36;100277.22;1088010;54;20682;-82
2023/03/27 13:39:21;;;;;;;;;;;;;;;6.62;60.07;100271.00;1088554;47;19949;-83
2023/03/27 13:40:26;;;;;;;;;;;;;;;6.45;60.82;100276.69;1087938;54;19973;-82
2023/03/27 13:41:45;;;;;;;;;;;;;;;6.55;60.53;100267.09;1088261;47;19927;-81
2023/03/27 13:58:11;;;;;;;;;;;;;;;6.91;58.39;100261.81;1087779;54;19941;-83
2023/03/27 14:29:03;;;;;;;;;;;;;;;7.12;57.57;100292.09;1087391;54;19965;-83
2023/03/27 14:30:14;;;;;;;;;;;;;;;6.98;58.35;100286.97;1088301;54;19950;-82
2023/03/27 14:33:20;;;;;;;;;;;;;;;6.36;60.63;100289.69;1087454;54;19946;-83
2023/03/27 14:40:40;;;;;;;;;;;;;;;6.48;61.73;100295.06;1087860;54;20006;-81
2023/03/27 14:46:54;;;;;;;;;;;;;;;6.29;61.29;100308.81;1087763;54;19942;-83
2023/03/27 14:48:00;;;;;;;;;;;;;;;6.20;61.21;100294.44;1087395;54;19949;-82
2023/03/27 14:49:06;;;;;;;;;;;;;;;6.36;61.07;100299.47;1087280;54;19957;-82
2023/03/27 14:51:40;;;;;;;;;;;;;;;6.51;60.28;100303.66;1088277;39;20184;-79
2023/03/27 14:53:28;;;;;;;;;;;;;;;6.48;59.89;100313.66;1087691;54;19945;-82
2023/03/27 14:56:18;;;;;;;;;;;;;;;6.44;58.52;100317.50;1087025;54;19952;-83
2023/03/27 14:58:55;;;;;;;;;;;;;;;6.46;58.53;100321.75;1087927;54;19930;-84
2023/03/27 15:00:07;;;;;;;;;;;;;;;;;;;;;
2023/03/27 15:01:15;;;;;;;;;;;;;;;6.83;57.93;100321.72;1087680;54;19943;-82
2023/03/27 15:02:19;;;;;;;;;;;;;;;6.99;57.67;100310.75;1087180;54;19972;-81
2023/03/27 15:03:28;;;;;;;;;;;;;;;7.12;57.92;100312.50;1086761;54;19942;-79